Latest Weather Observations for Yarrawonga

IDN60801

Issued at 2:33 am EDT Friday 6 March 2015 (issued every 30 minutes, with the page automatically refreshed every 10 minutes)

About weather observations | Map of weather stations | Latest weather observations for NSW | Other Formats
Station Details ID: 081124 Name: YARRAWONGA Lat: -36.03 Lon: 146.03 Height: 128.9 m
Data from the previous 72 hours. | See also: Recent months at Yarrawonga
Date/Time
EDT
Temp
°C
App
Temp
°C
Dew
Point
Rel
Hum
%
Delta-T
°C
Wind Press
QNH
hPa
Press
MSL
hPa
Rain
since 9 am
mm
Dir
 
Spd
km/h
Gust
km/h
Spd
kts
Gust
kts
06/02:30am 10.8 7.9 4.7 66 2.8 WSW 9 9 5 5 1013.8 1013.4 0.0
06/02:00am 11.0 7.6 4.2 63 3.1 WSW 11 11 6 6 1014.0 1013.6 0.0
06/01:30am 10.8 7.8 4.0 63 3.0 WSW 9 9 5 5 1014.2 1013.8 0.0
06/01:00am 11.4 7.9 3.7 59 3.4 WSW 11 11 6 6 1014.0 1013.6 0.0
06/12:30am 11.7 8.6 3.7 58 3.6 WSW 9 11 5 6 1014.2 1013.8 0.0
06/12:00am 12.2 9.7 3.7 56 3.8 W 6 6 3 3 1014.3 1013.9 0.0
 
Date/Time
EDT
Temp
°C
App
Temp
°C
Dew
Point
Rel
Hum
%
Delta-T
°C
Wind Press
QNH
hPa
Press
MSL
hPa
Rain
since 9 am
mm
Dir
 
Spd
km/h
Gust
km/h
Spd
kts
Gust
kts
05/11:30pm 11.9 9.1 3.4 56 3.8 WSW 7 9 4 5 1014.6 1014.3 0.0
05/11:00pm 13.2 10.6 3.3 51 4.4 WSW 6 7 3 4 1014.8 1014.5 0.0
05/10:30pm 13.5 10.8 2.7 48 4.8 WSW 6 6 3 3 1015.0 1014.6 0.0
05/10:00pm 13.4 11.1 2.6 48 4.8 WSW 4 4 2 2 1015.2 1014.8 0.0
05/09:30pm 14.2 11.8 2.1 44 5.3 SW 4 4 2 2 1015.1 1014.7 0.0
05/09:00pm 14.3 12.1 0.9 40 5.8 SSW 2 4 1 2 1014.7 1014.4 0.0
05/08:30pm 15.0 11.4 0.8 38 6.1 SSW 9 9 5 5 1014.4 1014.1 0.0
05/08:00pm 16.4 12.4 0.5 34 6.9 S 11 15 6 8 1014.1 1013.7 0.0
05/07:30pm 18.9 13.4 0.5 29 8.2 SSW 19 24 10 13 1014.2 1013.8 0.0
05/07:00pm 19.9 13.3 -0.1 26 8.9 SSW 24 32 13 17 1014.0 1013.6 0.0
05/06:30pm 21.0 14.4 -0.3 24 9.5 SSW 24 35 13 19 1013.9 1013.5 0.0
05/06:00pm 21.1 13.6 -1.4 22 9.8 SSW 28 41 15 22 1013.7 1013.3 0.0
05/05:30pm 21.8 13.3 -2.1 20 10.4 SW 33 44 18 24 1013.7 1013.3 0.0
05/05:00pm 21.9 14.2 -0.1 23 9.9 SW 30 54 16 29 1013.7 1013.3 0.0
05/04:53pm 22.3 13.8 0.8 24 9.9 SW 35 54 19 29 1013.8 1013.4 0.0
05/04:30pm 22.1 15.0 1.2 25 9.7 SW 28 39 15 21 1014.1 1013.7 0.0
05/04:00pm 21.9 14.9 2.1 27 9.3 SSW 28 43 15 23 1014.1 1013.7 0.0
05/03:30pm 22.5 15.1 2.1 26 9.6 SW 30 48 16 26 1014.5 1014.2 0.0
05/03:00pm 21.5 14.5 1.7 27 9.2 SSW 28 43 15 23 1014.8 1014.5 0.0
05/02:30pm 21.7 14.4 2.4 28 9.1 SSW 30 43 16 23 1015.1 1014.7 0.0
05/02:09pm 21.5 14.5 2.2 28 9.1 SSW 28 48 15 26 1015.2 1014.8 0.0
05/02:00pm 20.6 13.3 2.4 30 8.5 SSW 30 44 16 24 1015.3 1014.9 0.0
05/01:38pm 21.0 14.2 3.2 31 8.5 SSW 28 48 15 26 1015.6 1015.2 0.0
05/01:30pm 20.1 12.9 2.9 32 8.1 SSW 30 41 16 22 1015.8 1015.4 0.0
05/01:10pm 19.4 12.1 2.7 33 7.8 SW 30 50 16 27 1016.0 1015.6 0.0
05/01:00pm 19.7 11.5 2.6 32 8.0 SW 35 50 19 27 1016.2 1015.8 0.0
05/12:53pm 18.9 11.0 2.3 33 7.7 SSW 33 46 18 25 1016.1 1015.7 0.0
05/12:30pm 19.5 11.2 2.4 32 7.9 SSW 35 48 19 26 1016.0 1015.6 0.0
05/12:00pm 19.1 10.1 2.5 33 7.7 S 39 54 21 29 1016.2 1015.8 0.0
05/11:42am 18.8 10.5 2.2 33 7.6 SSW 35 57 19 31 1016.2 1015.8 0.0
05/11:30am 18.7 10.8 2.1 33 7.6 SW 33 46 18 25 1016.2 1015.8 0.0
05/11:00am 17.8 9.1 1.7 34 7.3 SSW 37 54 20 29 1016.0 1015.6 0.0
05/10:30am 16.8 7.7 2.0 37 6.7 SSW 39 56 21 30 1015.9 1015.5 0.0
05/10:13am 16.5 7.0 1.8 37 6.6 SSW 41 61 22 33 1015.9 1015.5 0.0
05/10:00am 15.8 5.4 2.2 40 6.1 SSW 46 57 25 31 1015.7 1015.3 0.0
05/09:35am 15.6 6.5 2.1 40 6.0 SSW 39 57 21 31 1015.4 1015.0 0.0
05/09:30am 15.3 6.2 2.1 41 5.9 SW 39 54 21 29 1015.4 1015.0 0.0
05/09:00am 14.6 5.5 1.8 42 5.6 SW 39 52 21 28 1015.0 1014.6 0.0
05/08:30am 14.0 5.3 2.0 44 5.3 SSW 37 57 20 31 1014.5 1014.2 0.0
05/08:29am 14.0 4.9 2.0 44 5.3 SW 39 57 21 31 1014.5 1014.2 0.0
05/08:00am 13.4 5.2 2.6 48 4.8 SSW 35 54 19 29 1014.2 1013.8 0.0
05/07:30am 13.6 6.0 5.7 59 3.8 SSW 35 52 19 28 1013.6 1013.2 0.0
05/07:24am 13.7 6.7 6.1 60 3.6 SSW 32 52 17 28 1013.5 1013.1 0.0
05/07:00am 14.7 7.4 7.0 60 3.8 SSW 35 48 19 26 1013.0 1012.6 0.0
05/06:54am 14.8 6.0 7.4 61 3.7 SSW 43 63 23 34 1012.8 1012.4 0.0
05/06:50am 15.0 6.2 8.0 63 3.5 SSW 44 63 24 34 1012.7 1012.3 0.0
05/06:37am 15.4 9.2 10.2 71 2.7 SW 33 54 18 29 1012.2 1011.8 0.0
05/06:30am 15.8 10.0 10.8 72 2.7 WSW 32 44 17 24 1012.0 1011.6 0.0
05/06:00am 15.5 10.1 10.9 74 2.5 WSW 30 43 16 23 1011.3 1010.9 0.0
05/05:31am 16.1 9.3 10.6 70 2.9 WSW 37 56 20 30 1010.8 1010.4 0.0
05/05:30am 16.2 9.0 10.7 70 2.9 WSW 39 56 21 30 1010.8 1010.4 0.0
05/05:23am 16.5 10.5 10.8 69 3.1 WSW 33 56 18 30 1010.7 1010.3 0.0
05/05:00am 15.9 11.8 10.2 69 3.0 W 22 30 12 16 1010.5 1010.1 0.0
05/04:30am 16.3 11.8 9.9 66 3.4 W 24 32 13 17 1010.3 1009.9 0.0
05/04:00am 16.5 11.8 9.4 63 3.7 W 24 39 13 21 1010.4 1010.0 0.0
05/03:30am 17.0 11.5 9.2 60 4.1 WSW 28 35 15 19 1010.2 1009.8 0.0
05/03:00am 17.4 12.3 9.1 58 4.3 WSW 26 35 14 19 1010.4 1010.0 0.0
05/02:30am 17.6 12.1 9.2 58 4.4 W 28 37 15 20 1010.4 1010.0 0.0
05/02:00am 18.0 14.1 9.6 58 4.5 W 20 28 11 15 1010.3 1009.9 0.0
05/01:30am 17.9 14.2 9.3 57 4.5 W 19 26 10 14 1010.4 1010.0 0.0
05/01:00am 17.8 15.3 8.4 54 4.9 W 11 17 6 9 1010.5 1010.1 0.0
05/12:30am 18.4 15.3 7.2 48 5.7 W 13 19 7 10 1010.6 1010.2 0.0
05/12:00am 19.5 15.1 6.6 43 6.5 W 19 24 10 13 1010.6 1010.2 0.0
 
Date/Time
EDT
Temp
°C
App
Temp
°C
Dew
Point
Rel
Hum
%
Delta-T
°C
Wind Press
QNH
hPa
Press
MSL
hPa
Rain
since 9 am
mm
Dir
 
Spd
km/h
Gust
km/h
Spd
kts
Gust
kts
04/11:30pm 19.9 16.5 5.9 40 7.0 W 13 19 7 10 1010.6 1010.2 0.0
04/11:00pm 20.6 17.5 5.4 37 7.6 WNW 11 17 6 9 1010.4 1010.0 0.0
04/10:30pm 20.8 17.9 4.8 35 7.9 WNW 9 13 5 7 1010.7 1010.3 0.0
04/10:00pm 21.1 18.1 4.2 33 8.2 WNW 9 13 5 7 1010.6 1010.2 0.0
04/09:30pm 21.2 18.1 3.4 31 8.5 W 9 15 5 8 1010.7 1010.3 0.0
04/09:00pm 22.4 18.4 3.0 28 9.3 WNW 13 17 7 9 1010.6 1010.2 0.0
04/08:30pm 23.0 18.9 2.5 26 9.8 WNW 13 20 7 11 1010.4 1010.0 0.0
04/08:00pm 23.6 19.9 2.4 25 10.2 W 11 17 6 9 1010.2 1009.8 0.0
04/07:30pm 25.4 20.3 0.8 20 11.6 WNW 17 24 9 13 1010.1 1009.7 0.0
04/07:00pm 26.7 21.8 1.9 20 12.1 W 17 24 9 13 1010.0 1009.6 0.0
04/06:30pm 27.4 22.1 1.8 19 12.5 W 19 28 10 15 1010.2 1009.8 0.0
04/06:00pm 27.7 21.7 1.2 18 12.8 W 22 32 12 17 1010.3 1009.9 0.0
04/05:30pm 28.2 21.7 0.0 16 13.4 W 24 33 13 18 1010.3 1009.9 0.0
04/05:00pm 29.0 23.7 3.1 19 13.1 W 20 32 11 17 1010.3 1009.9 0.0
04/04:30pm 28.4 23.0 2.6 19 12.8 WNW 20 30 11 16 1010.5 1010.1 0.0
04/04:00pm 28.9 23.9 4.4 21 12.6 W 20 33 11 18 1011.0 1010.6 0.0
04/03:30pm 28.6 22.4 2.0 18 13.1 W 24 35 13 19 1011.5 1011.1 0.0
04/03:00pm 28.5 23.3 3.4 20 12.7 WSW 20 33 11 18 1011.8 1011.4 0.0
04/02:30pm 27.8 22.3 2.1 19 12.6 W 20 33 11 18 1012.2 1011.8 0.0
04/02:00pm 27.3 22.6 3.1 21 12.1 W 17 26 9 14 1012.5 1012.1 0.0
04/01:30pm 27.3 22.5 4.4 23 11.7 W 19 30 10 16 1013.0 1012.6 0.0
04/01:00pm 27.3 22.6 5.0 24 11.5 WSW 19 24 10 13 1013.4 1013.0 0.0
04/12:30pm 26.6 21.2 4.4 24 11.3 WSW 22 32 12 17 1013.9 1013.5 0.0
04/12:00pm 25.6 20.6 3.6 24 10.9 WSW 19 28 10 15 1014.1 1013.7 0.0
04/11:30am 25.2 20.7 4.3 26 10.5 SW 17 28 9 15 1014.4 1014.1 0.0
04/11:00am 24.6 20.1 5.9 30 9.6 SW 19 28 10 15 1014.7 1014.4 0.0
04/10:30am 24.3 20.7 6.6 32 9.2 SW 15 26 8 14 1014.8 1014.5 0.0
04/10:00am 21.9 19.8 8.4 42 7.1 SW 9 13 5 7 1014.8 1014.5 0.0
04/09:30am 20.5 19.2 10.0 51 5.7 SW 7 11 4 6 1015.0 1014.6 0.0
04/09:00am 19.3 18.4 10.6 57 4.7 SSW 6 9 3 5 1015.0 1014.6 0.0
04/08:30am 16.8 15.7 10.6 67 3.3 WSW 7 9 4 5 1014.8 1014.5 0.0
04/08:00am 14.4 12.6 9.6 73 2.5 WSW 9 11 5 6 1014.4 1014.1 0.0
04/07:30am 12.6 10.4 9.4 81 1.6 SW 11 13 6 7 1013.9 1013.5 0.0
04/07:00am 11.5 9.2 8.9 84 1.3 WSW 11 11 6 6 1013.6 1013.2 0.0
04/06:30am 11.6 9.2 8.8 83 1.4 WSW 11 11 6 6 1013.3 1012.9 0.0
04/06:00am 12.1 9.7 8.8 80 1.7 WSW 11 11 6 6 1013.1 1012.7 0.0
04/05:30am 12.6 10.6 8.5 76 2.1 WSW 9 9 5 5 1012.8 1012.4 0.0
04/05:00am 13.4 11.0 8.5 72 2.5 WSW 11 13 6 7 1012.5 1012.1 0.0
04/04:30am 13.5 11.4 8.1 70 2.7 WSW 9 11 5 6 1012.6 1012.2 0.0
04/04:00am 13.8 11.3 8.0 68 2.9 WSW 11 11 6 6 1012.6 1012.2 0.0
04/03:30am 13.6 11.0 7.8 68 2.9 SW 11 13 6 7 1012.5 1012.1 0.0
04/03:00am 13.6 11.3 7.6 67 3.0 WSW 9 11 5 6 1013.0 1012.6 0.0
04/02:30am 15.1 12.4 7.2 59 3.9 WSW 11 15 6 8 1013.2 1012.8 0.0
04/02:00am 14.8 12.2 7.6 62 3.6 WSW 11 13 6 7 1013.2 1012.8 0.0
04/01:30am 15.1 12.8 7.6 61 3.7 WSW 9 11 5 6 1013.3 1012.9 0.0
04/01:00am 15.7 14.0 7.7 59 4.0 WSW 6 6 3 3 1013.3 1012.9 0.0
04/12:30am 15.9 14.2 7.4 57 4.3 WSW 6 7 3 4 1013.5 1013.1 0.0
04/12:00am 16.8 15.1 7.7 55 4.6 WSW 6 7 3 4 1013.5 1013.1 0.0
 
Date/Time
EDT
Temp
°C
App
Temp
°C
Dew
Point
Rel
Hum
%
Delta-T
°C
Wind Press
QNH
hPa
Press
MSL
hPa
Rain
since 9 am
mm
Dir
 
Spd
km/h
Gust
km/h
Spd
kts
Gust
kts
03/11:30pm 17.9 16.4 7.0 49 5.5 SW 4 6 2 3 1013.8 1013.4 0.0
03/11:00pm 18.7 17.8 6.2 44 6.2 CALM 0 0 0 0 1013.8 1013.4 0.0
03/10:30pm 18.7 17.6 6.9 46 6.0 SSW 2 7 1 4 1013.5 1013.1 0.0
03/10:00pm 19.0 16.5 6.5 44 6.3 SW 9 9 5 5 1013.4 1013.0 0.0
03/09:30pm 20.7 18.4 5.9 38 7.4 WSW 7 9 4 5 1013.3 1012.9 0.0
03/09:00pm 22.1 19.7 5.1 33 8.5 WSW 7 9 4 5 1013.1 1012.7 0.0
03/08:30pm 23.1 19.8 4.6 30 9.2 WSW 11 15 6 8 1012.8 1012.4 0.0
03/08:00pm 25.4 20.9 4.0 25 10.7 WSW 17 20 9 11 1012.6 1012.2 0.0
03/07:30pm 27.2 22.4 4.9 24 11.5 WSW 19 24 10 13 1012.4 1012.0 0.0
03/07:00pm 28.7 23.8 4.9 22 12.3 WSW 20 28 11 15 1012.2 1011.8 0.0
03/06:30pm 29.6 24.5 2.8 18 13.5 WSW 19 26 10 14 1011.9 1011.5 0.0
03/06:00pm 30.1 25.4 3.2 18 13.7 SW 17 26 9 14 1011.9 1011.5 0.0
03/05:30pm 30.1 24.3 2.4 17 13.9 WSW 22 33 12 18 1011.9 1011.5 0.0
03/05:00pm 30.3 24.8 0.8 15 14.4 WSW 19 33 10 18 1012.1 1011.7 0.0
03/04:30pm 30.6 24.6 1.0 15 14.5 W 22 33 12 18 1012.0 1011.6 0.0
03/04:00pm 30.9 25.7 2.2 16 14.4 W 19 28 10 15 1012.2 1011.8 0.0
03/03:30pm 31.4 26.6 2.6 16 14.6 WSW 17 28 9 15 1012.3 1011.9 0.0
03/03:00pm 30.2 25.4 2.5 17 13.9 W 17 26 9 14 1012.5 1012.1 0.0
03/02:30pm 31.5 27.2 3.5 17 14.4 SW 15 24 8 13 1013.0 1012.6 0.0
03/02:00pm 31.3 28.4 4.9 19 13.9 WNW 9 20 5 11 1013.1 1012.7 0.0
03/01:30pm 29.7 26.2 7.0 24 12.3 NNE 15 33 8 18 1013.3 1012.9 0.0
03/01:00pm 29.3 27.5 9.4 29 11.2 N 9 15 5 8 1013.8 1013.4 0.0
03/12:30pm 28.2 27.0 10.4 33 10.1 NW 7 15 4 8 1014.4 1014.1 0.0
03/12:00pm 28.2 27.9 11.3 35 9.7 SW 4 7 2 4 1014.5 1014.2 0.0
03/11:30am 26.5 25.4 11.8 40 8.5 NNW 9 13 5 7 1014.8 1014.5 0.0
03/11:00am 27.5 27.5 12.3 39 8.9 WNW 4 9 2 5 1014.8 1014.5 0.0
03/10:30am 25.4 25.1 11.6 42 7.9 NE 4 7 2 4 1015.0 1014.6 0.0
03/10:00am 24.9 24.3 10.4 40 8.1 SSE 4 7 2 4 1015.0 1014.6 0.0
03/09:30am 22.8 21.1 9.9 44 7.1 SSW 9 13 5 7 1015.0 1014.6 0.0
03/09:00am 21.5 19.2 10.6 50 6.0 SW 13 19 7 10 1015.0 1014.6 0.0
03/08:30am 21.0 20.0 10.2 50 5.9 WSW 6 9 3 5 1014.7 1014.4 0.0
03/08:00am 20.0 19.3 9.9 52 5.4 E 4 6 2 3 1013.9 1013.5 0.0
03/07:30am 18.9 19.4 11.5 62 4.1 CALM 0 0 0 0 1013.5 1013.1 0.0
03/07:00am 18.9 18.5 11.0 60 4.3 ENE 4 4 2 2 1013.2 1012.8 0.0
03/06:30am 19.0 18.5 10.8 59 4.5 SSW 4 4 2 2 1013.1 1012.7 0.0
03/06:00am 19.2 18.3 10.5 57 4.7 W 6 7 3 4 1013.0 1012.6 0.0
03/05:30am 19.2 18.5 10.2 56 4.9 WSW 4 4 2 2 1012.8 1012.4 0.0
03/05:00am 19.2 19.5 11.0 59 4.5 CALM 0 6 0 3 1012.3 1011.9 0.0
03/04:30am 19.7 18.4 9.3 51 5.5 ENE 6 7 3 4 1012.5 1012.1 0.0
03/04:00am 19.5 18.3 9.7 53 5.2 E 6 7 3 4 1012.6 1012.2 0.0
03/03:30am 19.9 18.8 9.8 52 5.4 S 6 7 3 4 1012.3 1011.9 0.0
03/03:00am 20.3 18.4 9.2 49 5.9 SSW 9 11 5 6 1012.1 1011.7 0.0

Other Formats:

Comma delimited format used in spreadsheet applications
http://www.bom.gov.au/fwo/IDN60801/IDN60801.94862.axf

JavaScript Object Notation format (JSON) in row-major order
http://www.bom.gov.au/fwo/IDN60801/IDN60801.94862.json